createdAt,value
2019-03-02T00:00:23.966Z,42.62
2019-03-02T00:03:07.440Z,45.05
2019-03-02T00:05:38.925Z,45.03
2019-03-02T00:08:13.459Z,47.67
2019-03-02T00:10:48.349Z,54.38
2019-03-02T00:13:18.541Z,44.58
2019-03-02T00:15:48.695Z,50.48
2019-03-02T00:18:19.882Z,45.08
2019-03-02T00:20:55.630Z,54.15
2019-03-02T00:23:29.833Z,51.15
2019-03-02T00:26:06.245Z,46.25
2019-03-02T00:28:36.500Z,48.20
2019-03-02T00:31:08.998Z,48.42
2019-03-02T00:33:42.496Z,49.98
2019-03-02T00:36:19.398Z,51.70
2019-03-02T00:38:48.432Z,42.58
2019-03-02T00:41:31.006Z,50.38
2019-03-02T00:44:09.171Z,59.42
2019-03-02T00:46:39.342Z,56.60
2019-03-02T00:49:10.665Z,53.20
2019-03-02T00:51:42.693Z,59.30
2019-03-02T00:54:14.779Z,55.48
2019-03-02T00:56:57.247Z,50.63
2019-03-02T00:59:39.403Z,46.30
2019-03-02T01:02:08.787Z,48.35
2019-03-02T01:04:41.741Z,50.63
2019-03-02T01:07:12.219Z,54.30
2019-03-02T01:09:43.613Z,46.80
2019-03-02T01:12:16.744Z,51.00
2019-03-02T01:14:47.880Z,44.85
2019-03-02T01:17:19.205Z,46.15
2019-03-02T01:19:52.701Z,49.63
2019-03-02T01:22:22.481Z,50.92
2019-03-02T01:24:55.613Z,46.65
2019-03-02T01:27:27.386Z,45.98
2019-03-02T01:30:00.714Z,44.40
2019-03-02T01:32:34.014Z,47.23
2019-03-02T01:35:04.502Z,52.15
2019-03-02T01:37:36.078Z,41.92
2019-03-02T01:40:10.119Z,38.23
2019-03-02T01:42:45.260Z,41.05
2019-03-02T01:45:15.903Z,38.88
2019-03-02T01:47:51.146Z,48.58
2019-03-02T01:50:21.215Z,42.73
2019-03-02T01:52:54.470Z,42.75
2019-03-02T01:55:27.884Z,41.28
2019-03-02T01:57:58.526Z,42.55
2019-03-02T02:00:30.626Z,37.75
2019-03-02T02:03:03.662Z,36.03
2019-03-02T02:05:35.851Z,37.15
2019-03-02T02:08:07.171Z,39.42
2019-03-02T02:10:39.969Z,34.60
2019-03-02T02:13:11.605Z,40.23
2019-03-02T02:15:41.881Z,42.93
2019-03-02T02:18:13.519Z,36.73
2019-03-02T02:20:46.890Z,42.60
2019-03-02T02:23:20.435Z,41.13
2019-03-02T02:25:53.579Z,38.17
2019-03-02T02:28:29.112Z,42.25
2019-03-02T02:31:01.905Z,42.48
2019-03-02T02:33:31.572Z,34.48
2019-03-02T02:36:04.369Z,43.92
2019-03-02T02:38:36.059Z,36.28
2019-03-02T02:41:07.808Z,36.90
2019-03-02T02:43:38.476Z,34.67
2019-03-02T02:46:08.637Z,43.35
2019-03-02T02:48:41.387Z,34.98
2019-03-02T02:51:14.385Z,37.80
2019-03-02T02:53:46.922Z,37.42
2019-03-02T02:56:19.942Z,34.00
2019-03-02T02:58:56.155Z,36.20
2019-03-02T03:01:33.760Z,37.42
2019-03-02T03:04:04.299Z,38.45
2019-03-02T03:06:35.804Z,36.95
2019-03-02T03:09:20.163Z,40.03
2019-03-02T03:11:50.315Z,35.28
2019-03-02T03:14:21.582Z,32.88
2019-03-02T03:16:54.207Z,38.50
2019-03-02T03:19:31.015Z,36.80
2019-03-02T03:22:07.374Z,38.23
2019-03-02T03:24:39.965Z,41.23
2019-03-02T03:27:13.334Z,37.50
2019-03-02T03:29:44.392Z,35.17
2019-03-02T03:32:16.185Z,37.17
2019-03-02T03:34:49.255Z,34.65
2019-03-02T03:37:21.350Z,37.95
2019-03-02T03:39:53.162Z,35.45
2019-03-02T03:42:24.883Z,46.60
2019-03-02T03:44:59.764Z,34.65
2019-03-02T03:47:34.082Z,34.60
2019-03-02T03:50:09.304Z,39.30
2019-03-02T03:52:37.915Z,44.40
2019-03-02T03:55:11.488Z,39.53
2019-03-02T03:57:44.652Z,43.80
2019-03-02T04:00:19.574Z,39.18
2019-03-02T04:02:51.617Z,29.80
2019-03-02T04:05:21.860Z,47.30
2019-03-02T04:07:52.078Z,38.02
2019-03-02T04:10:25.956Z,36.20
2019-03-02T04:12:54.147Z,40.28
2019-03-02T04:15:26.075Z,34.92
2019-03-02T04:17:57.479Z,38.90
2019-03-02T04:20:37.719Z,37.95
2019-03-02T04:23:10.581Z,42.50
2019-03-02T04:25:42.386Z,39.30
2019-03-02T04:28:15.844Z,39.23
2019-03-02T04:30:47.616Z,37.35
2019-03-02T04:33:18.278Z,42.98
2019-03-02T04:35:50.380Z,41.08
2019-03-02T04:38:21.379Z,39.95
2019-03-02T04:40:51.522Z,38.50
2019-03-02T04:43:23.721Z,42.70
2019-03-02T04:45:56.281Z,38.00
2019-03-02T04:48:26.455Z,36.85
2019-03-02T04:50:59.589Z,44.33
2019-03-02T04:53:32.994Z,36.75
2019-03-02T04:56:09.458Z,41.05
2019-03-02T04:58:43.621Z,38.20
2019-03-02T05:01:14.328Z,35.85
2019-03-02T05:03:58.073Z,38.35
2019-03-02T05:06:28.923Z,42.78
2019-03-02T05:09:01.929Z,37.10
2019-03-02T05:11:35.467Z,43.55
2019-03-02T05:16:40.770Z,43.17
2019-03-02T05:19:13.632Z,41.30
2019-03-02T05:21:44.457Z,41.18
2019-03-02T05:24:14.999Z,46.73
2019-03-02T05:26:47.533Z,35.92
2019-03-02T05:29:19.863Z,45.23
2019-03-02T05:31:50.860Z,40.38
2019-03-02T05:34:28.281Z,42.50
2019-03-02T05:37:02.895Z,45.28
2019-03-02T05:39:32.722Z,41.08
2019-03-02T05:42:03.220Z,45.63
2019-03-02T05:44:33.663Z,43.48
2019-03-02T05:47:04.395Z,35.40
2019-03-02T05:49:36.085Z,36.45
2019-03-02T05:52:08.842Z,39.05
2019-03-02T05:54:42.432Z,42.38
2019-03-02T05:57:13.585Z,44.03
2019-03-02T05:59:47.445Z,36.55
2019-03-02T06:02:19.737Z,35.15
2019-03-02T06:04:53.657Z,36.23
2019-03-02T06:07:29.780Z,46.70
2019-03-02T06:10:01.300Z,42.25
2019-03-02T06:12:31.816Z,38.88
2019-03-02T06:15:04.053Z,44.88
2019-03-02T06:17:35.001Z,45.75
2019-03-02T06:20:05.622Z,46.63
2019-03-02T06:25:19.877Z,36.68
2019-03-02T06:27:49.796Z,39.85
2019-03-02T06:30:21.834Z,37.03
2019-03-02T06:32:52.837Z,36.77
2019-03-02T06:35:24.980Z,38.90
2019-03-02T06:38:06.789Z,36.50
2019-03-02T06:41:00.272Z,38.23
2019-03-02T06:43:32.097Z,36.75
2019-03-02T06:46:44.598Z,39.03
2019-03-02T06:50:04.770Z,40.38
2019-03-02T06:52:35.839Z,40.15
2019-03-02T06:55:28.119Z,33.08
2019-03-02T06:58:11.957Z,38.02
2019-03-02T07:00:45.584Z,35.30
2019-03-02T07:03:28.460Z,38.17
2019-03-02T07:06:04.269Z,34.25
2019-03-02T07:08:36.358Z,36.55
2019-03-02T07:11:07.963Z,33.02
2019-03-02T07:13:41.680Z,35.20
2019-03-02T07:16:20.056Z,31.25
2019-03-02T07:22:41.600Z,33.95
2019-03-02T07:33:23.011Z,34.45
2019-03-02T07:36:02.183Z,30.75
2019-03-02T07:39:15.729Z,36.65
2019-03-02T07:41:54.213Z,29.98
2019-03-02T07:44:27.958Z,33.78
2019-03-02T07:47:03.607Z,36.25
2019-03-02T07:54:18.587Z,33.35
2019-03-02T08:07:11.521Z,34.38
2019-03-02T08:10:06.506Z,29.40
2019-03-02T08:12:41.444Z,32.58
2019-03-02T08:15:27.868Z,29.87
2019-03-02T08:25:50.975Z,27.37
2019-03-02T08:28:22.965Z,29.90
2019-03-02T08:34:56.140Z,33.60
2019-03-02T08:37:29.924Z,26.23
2019-03-02T08:40:01.909Z,31.05
2019-03-02T08:42:32.095Z,29.77
2019-03-02T08:45:53.939Z,26.50
2019-03-02T08:48:26.782Z,29.37
2019-03-02T08:50:56.949Z,26.25
2019-03-02T08:53:27.408Z,23.90
2019-03-02T08:56:00.513Z,22.77
2019-03-02T08:58:43.323Z,24.15
2019-03-02T09:01:18.708Z,23.85
2019-03-02T09:03:51.797Z,22.85
2019-03-02T09:06:42.657Z,26.42
2019-03-02T09:10:03.706Z,22.45
2019-03-02T09:13:01.275Z,23.12
2019-03-02T09:20:03.965Z,26.07
2019-03-02T09:22:36.558Z,29.12
2019-03-02T09:25:19.992Z,24.98
2019-03-02T09:28:46.855Z,24.30
2019-03-02T09:31:54.191Z,24.20
2019-03-02T09:34:37.080Z,25.32
2019-03-02T09:37:10.431Z,23.73
2019-03-02T09:39:51.539Z,22.77
2019-03-02T09:42:21.130Z,23.45
2019-03-02T10:07:25.193Z,23.77
2019-03-02T10:13:51.093Z,23.87
2019-03-02T10:16:25.687Z,20.12
2019-03-02T10:19:07.001Z,27.10
2019-03-02T10:21:39.831Z,27.82
2019-03-02T10:24:13.579Z,25.30
2019-03-02T10:26:46.222Z,22.32
2019-03-02T10:29:19.085Z,23.10
2019-03-02T10:31:59.143Z,24.35
2019-03-02T10:37:43.753Z,19.82
2019-03-02T10:40:19.119Z,21.57
2019-03-02T10:42:59.816Z,24.07
2019-03-02T10:45:52.010Z,27.00
2019-03-02T10:48:22.771Z,20.02
2019-03-02T10:50:55.889Z,22.70
2019-03-02T10:53:27.496Z,23.87
2019-03-02T10:56:12.054Z,22.05
2019-03-02T10:59:04.148Z,19.92
2019-03-02T11:01:43.604Z,22.55
2019-03-02T11:04:48.993Z,25.37
2019-03-02T11:07:54.589Z,19.77
2019-03-02T11:10:59.948Z,21.07
2019-03-02T11:13:51.833Z,18.20
2019-03-02T11:16:44.601Z,24.35
2019-03-02T11:19:38.977Z,31.33
2019-03-02T11:22:38.577Z,22.55
2019-03-02T11:25:23.065Z,21.75
2019-03-02T11:28:10.931Z,17.90
2019-03-02T11:31:02.826Z,20.30
2019-03-02T11:33:46.686Z,15.98
2019-03-02T11:36:35.509Z,19.62
2019-03-02T11:39:28.359Z,17.02
2019-03-02T11:42:10.368Z,21.35
2019-03-02T11:45:02.232Z,21.20
2019-03-02T11:47:58.325Z,19.02
2019-03-02T11:51:03.349Z,22.32
2019-03-02T11:53:53.155Z,19.73
2019-03-02T11:56:46.465Z,19.92
2019-03-02T11:59:45.307Z,22.55
2019-03-02T12:02:35.357Z,21.73
2019-03-02T12:05:25.053Z,19.85
2019-03-02T12:08:11.243Z,20.90
2019-03-02T12:10:51.374Z,20.68
2019-03-02T12:13:34.849Z,19.12
2019-03-02T12:16:26.444Z,19.52
2019-03-02T12:19:20.046Z,20.80
2019-03-02T12:22:07.167Z,18.90
2019-03-02T12:24:58.482Z,19.57
2019-03-02T12:27:55.075Z,10.80
2019-03-02T12:30:42.707Z,16.93
2019-03-02T12:33:38.198Z,9.90
2019-03-02T12:36:17.850Z,12.98
2019-03-02T12:38:55.057Z,10.00
2019-03-02T12:41:48.948Z,12.55
2019-03-02T12:44:32.330Z,12.18
2019-03-02T12:47:24.098Z,9.50
2019-03-02T12:50:13.261Z,14.47
2019-03-02T12:53:05.868Z,10.25
2019-03-02T12:55:56.972Z,10.25
2019-03-02T12:58:37.613Z,10.45
2019-03-02T13:01:20.072Z,11.65
2019-03-02T13:04:10.505Z,9.53
2019-03-02T13:07:03.582Z,9.20
2019-03-02T13:09:55.927Z,8.68
2019-03-02T13:12:39.150Z,9.55
2019-03-02T13:15:42.249Z,9.68
2019-03-02T13:18:25.946Z,8.93
2019-03-02T13:21:16.222Z,10.65
2019-03-02T13:24:08.615Z,7.00
2019-03-02T13:26:50.188Z,10.23
2019-03-02T13:29:45.231Z,9.98
2019-03-02T13:32:56.015Z,10.95
2019-03-02T13:35:47.089Z,11.57
2019-03-02T13:38:39.510Z,10.70
2019-03-02T13:41:31.689Z,9.03
2019-03-02T13:44:21.346Z,8.00
2019-03-02T13:47:10.574Z,14.50
2019-03-02T13:50:10.008Z,10.23
2019-03-02T13:57:01.124Z,8.95
2019-03-02T14:00:03.626Z,10.45
2019-03-02T14:03:10.660Z,9.95
2019-03-02T14:05:55.836Z,9.05
2019-03-02T14:08:39.775Z,12.33
2019-03-02T14:11:39.684Z,12.95
2019-03-02T14:14:31.739Z,13.22
2019-03-02T14:17:24.263Z,14.35
2019-03-02T14:20:20.652Z,12.05
2019-03-02T14:23:02.936Z,12.30
2019-03-02T14:25:56.178Z,13.43
2019-03-02T14:28:54.762Z,10.65
2019-03-02T14:31:48.888Z,12.65
2019-03-02T14:34:36.516Z,16.52
2019-03-02T14:37:13.897Z,9.35
2019-03-02T14:39:58.871Z,12.88
2019-03-02T14:42:58.729Z,9.85
2019-03-02T14:45:34.761Z,7.42
2019-03-02T14:48:27.258Z,8.00
2019-03-02T14:51:20.777Z,13.60
2019-03-02T14:54:09.213Z,10.48
2019-03-02T14:56:53.901Z,8.30
2019-03-02T14:59:39.228Z,10.68
2019-03-02T15:02:28.174Z,10.28
2019-03-02T15:05:20.159Z,11.45
2019-03-02T15:08:01.191Z,8.70
2019-03-02T15:10:53.506Z,12.33
2019-03-02T15:13:42.669Z,9.45
2019-03-02T15:16:26.156Z,9.95
2019-03-02T15:19:15.639Z,8.95
2019-03-02T15:22:08.228Z,9.73
2019-03-02T15:24:56.545Z,9.70
2019-03-02T15:27:40.456Z,8.93
2019-03-02T15:30:29.192Z,13.45
2019-03-02T15:33:19.271Z,8.83
2019-03-02T15:36:15.501Z,8.58
2019-03-02T15:39:16.662Z,8.35
2019-03-02T15:42:13.901Z,8.13
2019-03-02T15:44:50.781Z,7.25
2019-03-02T15:47:47.409Z,8.13
2019-03-02T15:50:37.287Z,10.23
2019-03-02T15:53:32.720Z,7.42
2019-03-02T15:56:23.405Z,6.55
2019-03-02T15:59:16.448Z,10.93
2019-03-02T16:02:19.135Z,9.73
2019-03-02T16:05:12.457Z,13.58
2019-03-02T16:08:05.143Z,9.00
2019-03-02T16:10:53.655Z,11.38
2019-03-02T16:13:50.139Z,8.98
2019-03-02T16:16:42.892Z,8.28
2019-03-02T16:19:52.961Z,6.78
2019-03-02T16:22:37.688Z,9.00
2019-03-02T16:28:21.911Z,8.50
2019-03-02T16:31:28.746Z,7.78
2019-03-02T16:34:12.635Z,8.73
2019-03-02T16:37:00.494Z,8.53
2019-03-02T16:39:42.770Z,8.58
2019-03-02T16:42:20.455Z,5.72
2019-03-02T16:44:58.907Z,7.80
2019-03-02T16:47:44.976Z,8.80
2019-03-02T16:50:35.639Z,6.17
2019-03-02T16:53:39.764Z,7.50
2019-03-02T16:56:44.545Z,13.00
2019-03-02T16:59:45.334Z,6.95
2019-03-02T17:02:34.833Z,6.15
2019-03-02T17:05:14.679Z,7.72
2019-03-02T17:08:10.011Z,7.75
2019-03-02T17:11:01.004Z,7.90
2019-03-02T17:13:51.831Z,6.35
2019-03-02T17:16:47.000Z,10.03
2019-03-02T17:19:36.178Z,5.28
2019-03-02T17:22:32.481Z,7.95
2019-03-02T17:25:13.551Z,10.00
2019-03-02T17:28:04.763Z,8.95
2019-03-02T17:30:58.203Z,10.20
2019-03-02T17:33:54.144Z,5.92
2019-03-02T17:36:41.625Z,8.45
2019-03-02T17:39:39.356Z,13.18
2019-03-02T17:42:28.097Z,9.25
2019-03-02T17:45:21.204Z,8.15
2019-03-02T17:48:05.035Z,8.25
2019-03-02T17:50:45.579Z,10.70
2019-03-02T17:53:29.326Z,7.12
2019-03-02T17:56:23.109Z,9.35
2019-03-02T17:59:11.548Z,7.70
2019-03-02T18:02:05.017Z,7.78
2019-03-02T18:04:53.313Z,8.45
2019-03-02T18:07:38.605Z,7.50
2019-03-02T18:10:29.602Z,9.15
2019-03-02T18:13:09.692Z,6.75
2019-03-02T18:16:05.850Z,11.95
2019-03-02T18:18:36.533Z,8.28
2019-03-02T18:21:07.979Z,11.03
2019-03-02T18:23:39.817Z,9.55
2019-03-02T18:26:11.214Z,10.75
2019-03-02T18:28:41.637Z,13.32
2019-03-02T18:31:16.076Z,6.00
2019-03-02T18:33:56.150Z,15.70
2019-03-02T18:36:27.954Z,11.45
2019-03-02T18:38:58.183Z,7.25
2019-03-02T18:41:29.020Z,10.65
2019-03-02T18:44:02.603Z,8.15
2019-03-02T18:46:33.241Z,9.63
2019-03-02T18:49:23.437Z,5.58
2019-03-02T18:52:26.427Z,10.90
2019-03-02T18:54:56.601Z,3.50
2019-03-02T18:57:28.508Z,4.45
2019-03-02T19:00:08.270Z,5.58
2019-03-02T19:02:44.096Z,9.95
2019-03-02T19:05:41.320Z,8.60
2019-03-02T19:08:18.816Z,5.65
2019-03-02T19:11:02.107Z,13.05
2019-03-02T19:13:32.773Z,7.15
2019-03-02T19:16:03.036Z,6.15
2019-03-02T19:18:33.234Z,8.35
2019-03-02T19:21:03.419Z,8.10
2019-03-02T19:23:33.640Z,5.37
2019-03-02T19:26:04.069Z,5.85
2019-03-02T19:28:36.034Z,7.42
2019-03-02T19:31:06.244Z,12.18
2019-03-02T19:33:37.770Z,6.33
2019-03-02T19:36:07.944Z,10.30
2019-03-02T19:38:38.097Z,5.42
2019-03-02T19:41:09.239Z,10.60
2019-03-02T19:43:42.730Z,6.17
2019-03-02T19:46:14.116Z,7.97
2019-03-02T19:48:44.333Z,6.15
2019-03-02T19:51:15.272Z,8.23
2019-03-02T19:53:45.889Z,6.45
2019-03-02T19:56:16.902Z,5.83
2019-03-02T19:58:47.890Z,7.72
2019-03-02T20:01:18.129Z,7.20
2019-03-02T20:03:50.009Z,7.28
2019-03-02T20:06:21.503Z,7.72
2019-03-02T20:08:53.047Z,10.23
2019-03-02T20:11:25.439Z,9.73
2019-03-02T20:13:55.864Z,13.60
2019-03-02T20:16:27.919Z,7.47
2019-03-02T20:18:59.571Z,6.60
2019-03-02T20:21:30.890Z,5.87
2019-03-02T20:24:01.507Z,8.05
2019-03-02T20:26:34.149Z,5.45
2019-03-02T20:29:04.677Z,9.85
2019-03-02T20:31:35.989Z,12.68
2019-03-02T20:34:06.242Z,4.90
2019-03-02T20:36:37.614Z,3.90
2019-03-02T20:39:34.710Z,5.85
2019-03-02T20:42:05.155Z,5.00
2019-03-02T20:44:45.615Z,11.08
2019-03-02T20:47:15.913Z,8.25
2019-03-02T20:49:46.109Z,7.17
2019-03-02T20:52:18.423Z,12.25
2019-03-02T20:54:51.215Z,7.17
2019-03-02T20:57:25.688Z,6.72
2019-03-02T20:59:57.625Z,12.15
2019-03-02T21:02:28.746Z,7.37
2019-03-02T21:05:02.451Z,8.15
2019-03-02T21:07:32.610Z,7.87
2019-03-02T21:10:03.251Z,6.95
2019-03-02T21:12:33.847Z,7.00
2019-03-02T21:15:06.333Z,6.10
2019-03-02T21:17:38.396Z,2.98
2019-03-02T21:20:14.815Z,4.53
2019-03-02T21:22:45.276Z,5.30
2019-03-02T21:25:19.466Z,4.17
2019-03-02T21:27:51.542Z,6.78
2019-03-02T21:30:22.960Z,5.15
2019-03-02T21:32:55.533Z,9.28
2019-03-02T21:35:27.054Z,5.72
2019-03-02T21:37:58.200Z,5.60
2019-03-02T21:40:33.311Z,7.55
2019-03-02T21:43:03.594Z,4.12
2019-03-02T21:45:33.830Z,2.70
2019-03-02T21:48:04.896Z,3.60
2019-03-02T21:50:35.188Z,2.50
2019-03-02T21:53:06.019Z,2.75
2019-03-02T21:55:37.529Z,1.77
2019-03-02T21:58:09.739Z,4.65
2019-03-02T22:00:42.996Z,2.80
2019-03-02T22:03:13.537Z,3.65
2019-03-02T22:05:44.258Z,6.25
2019-03-02T22:08:15.032Z,3.30
2019-03-02T22:10:52.451Z,3.02
2019-03-02T22:13:22.696Z,2.62
2019-03-02T22:15:53.040Z,1.60
2019-03-02T22:18:24.771Z,4.05
2019-03-02T22:20:55.248Z,2.20
2019-03-02T22:23:27.178Z,1.80
2019-03-02T22:26:02.044Z,2.05
2019-03-02T22:28:34.775Z,1.92
2019-03-02T22:31:05.862Z,3.45
2019-03-02T22:33:38.701Z,1.65
2019-03-02T22:36:09.030Z,3.45
2019-03-02T22:38:40.863Z,1.50
2019-03-02T22:41:12.857Z,2.67
2019-03-02T22:43:44.464Z,1.90
2019-03-02T22:46:14.618Z,1.87
2019-03-02T22:48:45.161Z,3.00
2019-03-02T22:51:17.943Z,2.95
2019-03-02T22:53:50.199Z,2.62
2019-03-02T22:56:22.075Z,2.92
2019-03-02T22:58:51.339Z,2.60
2019-03-02T23:01:38.868Z,5.37
2019-03-02T23:04:10.073Z,1.67
2019-03-02T23:06:42.531Z,1.60
2019-03-02T23:09:15.426Z,2.75
2019-03-02T23:11:49.468Z,3.30
2019-03-02T23:14:22.617Z,1.15
2019-03-02T23:16:52.795Z,4.28
2019-03-02T23:19:24.753Z,3.35
2019-03-02T23:21:59.011Z,2.37
2019-03-02T23:24:29.743Z,1.75
2019-03-02T23:27:00.311Z,2.95
2019-03-02T23:29:32.207Z,2.77
2019-03-02T23:32:02.443Z,2.10
2019-03-02T23:34:37.124Z,3.35
2019-03-02T23:37:06.278Z,2.87
2019-03-02T23:39:38.047Z,2.85
2019-03-02T23:42:08.576Z,1.40
2019-03-02T23:44:38.723Z,2.33
2019-03-02T23:47:09.862Z,2.30
2019-03-02T23:49:40.204Z,3.22
2019-03-02T23:52:13.177Z,2.40
2019-03-02T23:54:43.381Z,2.25
2019-03-02T23:57:13.591Z,2.30
2019-03-02T23:59:43.806Z,2.98
